Time;durP1;ratioP1;P1;durP2;ratioP2;P2;SDS_P1;SDS_P2;PMS_P1;PMS_P2;Temp;Humidity;BMP_temperature;BMP_pressure;BME280_temperature;BME280_humidity;BME280_pressure;Samples;Min_cycle;Max_cycle;Signal;HPM_P1;HPM_P2
2024/01/01 00:00:53;;;;;;;22.00;17.23;;;;;;;;;;5112348;28;20199;-83
2024/01/01 00:03:21;;;;;;;31.10;22.93;;;;;;;;;;5112392;28;20203;-83
2024/01/01 00:05:48;;;;;;;38.07;27.00;;;;;;;;;;5112596;28;20685;-82
2024/01/01 00:08:15;;;;;;;32.60;22.20;;;;;;;;;;5112803;28;20650;-82
2024/01/01 00:10:47;;;;;;;22.17;18.47;;;;;;;;;;5112699;28;20201;-83
2024/01/01 00:13:14;;;;;;;25.37;19.17;;;;;;;;;;5112906;28;20200;-83
2024/01/01 00:15:40;;;;;;;26.13;19.43;;;;;;;;;;5112214;28;20206;-83
2024/01/01 00:18:07;;;;;;;17.23;15.13;;;;;;;;;;5112164;28;20686;-83
2024/01/01 00:20:36;;;;;;;20.33;16.47;;;;;;;;;;5112427;28;20611;-83
2024/01/01 00:23:03;;;;;;;31.20;21.67;;;;;;;;;;5112103;28;20666;-83
2024/01/01 00:25:35;;;;;;;53.37;31.53;;;;;;;;;;5111964;28;20581;-84
2024/01/01 00:28:02;;;;;;;85.87;44.50;;;;;;;;;;5112420;28;20199;-83
2024/01/01 00:30:29;;;;;;;46.43;31.43;;;;;;;;;;5112549;28;20246;-83
2024/01/01 00:32:56;;;;;;;37.53;25.73;;;;;;;;;;5112405;28;20235;-83
2024/01/01 00:35:23;;;;;;;37.93;25.50;;;;;;;;;;5112400;28;20199;-82
2024/01/01 00:37:51;;;;;;;29.67;24.13;;;;;;;;;;5112150;28;20191;-83
2024/01/01 00:40:18;;;;;;;29.27;22.60;;;;;;;;;;5112252;28;20203;-82
2024/01/01 00:42:47;;;;;;;36.77;28.03;;;;;;;;;;5112296;28;20604;-83
2024/01/01 00:45:14;;;;;;;37.47;28.10;;;;;;;;;;5112518;28;20547;-82
2024/01/01 00:47:41;;;;;;;41.57;32.93;;;;;;;;;;5112817;28;20206;-83
2024/01/01 00:50:08;;;;;;;47.23;38.00;;;;;;;;;;5112064;28;20215;-82
2024/01/01 00:52:35;;;;;;;57.90;39.60;;;;;;;;;;5111845;28;20203;-82
2024/01/01 00:55:06;;;;;;;52.33;36.27;;;;;;;;;;5112378;28;20206;-82
2024/01/01 00:57:33;;;;;;;40.37;28.77;;;;;;;;;;5112061;28;20638;-83
2024/01/01 01:00:00;;;;;;;42.27;25.83;;;;;;;;;;5112820;28;20199;-82
2024/01/01 01:02:27;;;;;;;30.47;23.83;;;;;;;;;;5112431;28;20199;-82
2024/01/01 01:04:54;;;;;;;25.97;20.43;;;;;;;;;;5111934;28;20619;-82
2024/01/01 01:07:21;;;;;;;29.87;21.17;;;;;;;;;;5111743;28;20206;-82
2024/01/01 01:09:47;;;;;;;49.13;33.57;;;;;;;;;;5111979;28;20215;-83
2024/01/01 01:12:18;;;;;;;38.23;26.10;;;;;;;;;;5111674;28;20271;-83
2024/01/01 01:14:45;;;;;;;30.80;23.23;;;;;;;;;;5111809;28;20200;-83
2024/01/01 01:17:12;;;;;;;31.97;21.77;;;;;;;;;;5115216;28;20689;-82
2024/01/01 01:19:39;;;;;;;24.13;18.90;;;;;;;;;;5115473;28;20592;-82
2024/01/01 01:22:06;;;;;;;26.07;19.57;;;;;;;;;;5116235;28;20195;-82
2024/01/01 01:24:32;;;;;;;23.63;17.33;;;;;;;;;;5115285;28;20712;-83
2024/01/01 01:26:59;;;;;;;24.60;20.20;;;;;;;;;;5115404;28;20199;-83
2024/01/01 01:29:27;;;;;;;23.93;17.67;;;;;;;;;;5115739;28;20211;-82
2024/01/01 01:31:54;;;;;;;21.83;15.47;;;;;;;;;;5115658;28;20227;-83
2024/01/01 01:34:22;;;;;;;31.90;23.20;;;;;;;;;;5115116;28;20199;-83
2024/01/01 01:36:48;;;;;;;24.93;18.57;;;;;;;;;;5115198;28;20191;-82
2024/01/01 01:39:15;;;;;;;20.17;17.93;;;;;;;;;;5115342;28;20602;-83
2024/01/01 01:41:42;;;;;;;21.17;17.37;;;;;;;;;;5115349;28;20191;-83
2024/01/01 01:44:09;;;;;;;20.80;16.33;;;;;;;;;;5115089;28;20210;-83
2024/01/01 01:46:37;;;;;;;24.13;19.27;;;;;;;;;;5097331;28;20249;-82
2024/01/01 01:49:06;;;;;;;22.27;17.70;;;;;;;;;;5114752;28;20705;-82
2024/01/01 01:51:33;;;;;;;19.60;14.57;;;;;;;;;;5115100;28;20282;-83
2024/01/01 01:54:00;;;;;;;16.43;14.73;;;;;;;;;;5113436;28;20202;-83
2024/01/01 01:56:28;;;;;;;17.40;15.63;;;;;;;;;;5114928;28;20197;-82
2024/01/01 01:58:55;;;;;;;26.60;20.10;;;;;;;;;;5114861;28;20562;-82
2024/01/01 02:01:21;;;;;;;23.83;18.27;;;;;;;;;;5114508;28;20195;-82
2024/01/01 02:03:52;;;;;;;22.70;16.57;;;;;;;;;;5115490;28;20203;-82
2024/01/01 02:06:19;;;;;;;22.40;16.50;;;;;;;;;;5113767;28;20613;-82
2024/01/01 02:08:46;;;;;;;17.67;15.33;;;;;;;;;;5114539;28;20617;-82
2024/01/01 02:11:13;;;;;;;17.47;14.63;;;;;;;;;;5114745;28;20234;-82
2024/01/01 02:13:40;;;;;;;17.10;13.90;;;;;;;;;;5114278;28;20191;-82
2024/01/01 02:16:07;;;;;;;47.97;32.77;;;;;;;;;;5114411;28;20195;-82
2024/01/01 02:18:34;;;;;;;69.73;45.67;;;;;;;;;;5114317;28;20199;-82
2024/01/01 02:21:02;;;;;;;36.27;25.37;;;;;;;;;;5114309;28;20195;-82
2024/01/01 02:23:30;;;;;;;86.17;54.17;;;;;;;;;;5114766;28;20199;-82
2024/01/01 02:25:58;;;;;;;125.17;70.60;;;;;;;;;;5114137;28;20195;-82
2024/01/01 02:28:24;;;;;;;272.63;134.60;;;;;;;;;;5096090;28;20666;-82
2024/01/01 02:30:51;;;;;;;320.17;161.37;;;;;;;;;;5113962;28;20220;-82
2024/01/01 02:33:18;;;;;;;327.70;172.13;;;;;;;;;;5114197;28;20196;-82
2024/01/01 02:35:45;;;;;;;119.03;75.37;;;;;;;;;;5114867;28;20199;-82
2024/01/01 02:38:12;;;;;;;74.63;47.27;;;;;;;;;;5114241;28;20661;-82
2024/01/01 02:40:40;;;;;;;61.90;42.63;;;;;;;;;;5114011;28;20206;-82
2024/01/01 02:43:07;;;;;;;49.03;35.37;;;;;;;;;;5114357;28;20614;-83
2024/01/01 02:45:34;;;;;;;28.80;21.30;;;;;;;;;;5114551;28;20202;-82
2024/01/01 02:48:01;;;;;;;21.77;17.17;;;;;;;;;;5113869;28;20199;-82
2024/01/01 02:50:29;;;;;;;28.80;21.23;;;;;;;;;;5113643;28;20223;-82
2024/01/01 02:52:55;;;;;;;32.50;23.23;;;;;;;;;;5114316;28;20195;-82
2024/01/01 02:55:22;;;;;;;30.47;22.27;;;;;;;;;;5114029;28;20199;-82
2024/01/01 02:57:50;;;;;;;22.73;18.00;;;;;;;;;;5113928;28;20225;-82
2024/01/01 03:00:17;;;;;;;21.30;16.37;;;;;;;;;;5113446;28;20196;-82
2024/01/01 03:02:44;;;;;;;17.53;15.60;;;;;;;;;;5114027;28;20205;-82
2024/01/01 03:05:11;;;;;;;18.03;15.83;;;;;;;;;;5113500;28;20206;-82
2024/01/01 03:07:38;;;;;;;19.27;14.43;;;;;;;;;;5113308;28;20738;-82
2024/01/01 03:10:06;;;;;;;19.10;14.20;;;;;;;;;;5113839;28;20640;-82
2024/01/01 03:12:33;;;;;;;19.33;15.17;;;;;;;;;;5113460;28;20199;-82
2024/01/01 03:15:02;;;;;;;24.97;17.90;;;;;;;;;;5113547;28;20252;-82
2024/01/01 03:17:32;;;;;;;24.00;16.77;;;;;;;;;;5113587;28;20196;-82
2024/01/01 03:19:59;;;;;;;20.20;16.03;;;;;;;;;;5113127;28;20210;-82
2024/01/01 03:22:26;;;;;;;17.70;14.07;;;;;;;;;;5113299;28;20666;-82
2024/01/01 03:24:53;;;;;;;16.80;15.13;;;;;;;;;;5113425;28;20196;-82
2024/01/01 03:27:20;;;;;;;21.43;15.93;;;;;;;;;;5113347;28;20196;-82
2024/01/01 03:29:46;;;;;;;19.70;16.17;;;;;;;;;;5112762;28;20211;-82
2024/01/01 03:32:14;;;;;;;15.53;13.77;;;;;;;;;;5113285;28;20223;-82
2024/01/01 03:34:42;;;;;;;17.60;13.50;;;;;;;;;;5112912;28;20253;-82
2024/01/01 03:37:08;;;;;;;18.57;13.83;;;;;;;;;;5112959;28;20202;-82
2024/01/01 03:39:35;;;;;;;15.10;13.40;;;;;;;;;;5112775;28;20207;-82
2024/01/01 03:42:02;;;;;;;15.50;12.90;;;;;;;;;;5113348;28;20191;-82
2024/01/01 03:44:29;;;;;;;17.40;14.00;;;;;;;;;;5113034;28;20195;-82
2024/01/01 03:46:55;;;;;;;18.80;15.47;;;;;;;;;;5113022;28;20207;-82
2024/01/01 03:49:24;;;;;;;48.70;34.97;;;;;;;;;;5112799;28;20199;-82
2024/01/01 03:51:51;;;;;;;25.70;19.83;;;;;;;;;;5112423;28;20227;-82
2024/01/01 03:54:17;;;;;;;40.17;27.80;;;;;;;;;;5113450;28;20199;-82
2024/01/01 03:56:44;;;;;;;30.40;21.70;;;;;;;;;;5112943;28;20191;-82
2024/01/01 03:59:11;;;;;;;22.87;16.70;;;;;;;;;;5113131;28;20191;-82
2024/01/01 04:01:38;;;;;;;25.43;19.77;;;;;;;;;;5112811;28;20207;-82
2024/01/01 04:04:06;;;;;;;25.57;18.73;;;;;;;;;;5112333;28;20260;-82
2024/01/01 04:06:34;;;;;;;20.00;17.20;;;;;;;;;;5112164;28;20199;-82
2024/01/01 04:09:02;;;;;;;22.00;16.87;;;;;;;;;;5112817;28;20195;-82
2024/01/01 04:11:29;;;;;;;21.90;18.27;;;;;;;;;;5112224;28;20689;-82
2024/01/01 04:13:56;;;;;;;18.53;16.23;;;;;;;;;;5112038;28;20207;-82
2024/01/01 04:16:23;;;;;;;24.17;16.27;;;;;;;;;;5094559;28;20192;-82
2024/01/01 04:18:52;;;;;;;22.90;17.23;;;;;;;;;;5112054;28;20199;-82
2024/01/01 04:21:19;;;;;;;19.70;15.53;;;;;;;;;;5112694;28;20290;-82
2024/01/01 04:23:54;;;;;;;18.57;15.73;;;;;;;;;;5112557;28;20199;-82
2024/01/01 04:26:21;;;;;;;17.67;14.73;;;;;;;;;;5112468;28;20251;-82
2024/01/01 04:28:47;;;;;;;19.10;16.03;;;;;;;;;;5112122;28;20195;-82
2024/01/01 04:31:14;;;;;;;23.47;16.40;;;;;;;;;;5112406;28;20231;-82
2024/01/01 04:33:41;;;;;;;17.00;14.43;;;;;;;;;;5112564;28;20198;-82
2024/01/01 04:36:08;;;;;;;22.03;17.80;;;;;;;;;;5112104;28;20199;-82
2024/01/01 04:38:35;;;;;;;19.30;16.77;;;;;;;;;;5113217;28;20198;-82
2024/01/01 04:41:04;;;;;;;21.57;16.10;;;;;;;;;;5103808;28;20589;-82
2024/01/01 04:43:31;;;;;;;22.67;17.97;;;;;;;;;;5092186;28;20257;-82
2024/01/01 04:45:58;;;;;;;19.70;16.93;;;;;;;;;;5073859;28;20700;-82
2024/01/01 04:48:25;;;;;;;23.73;17.67;;;;;;;;;;5092119;28;20208;-82
2024/01/01 04:50:52;;;;;;;22.80;17.23;;;;;;;;;;5095135;28;20304;-82
2024/01/01 04:53:19;;;;;;;19.13;16.33;;;;;;;;;;5096336;28;20546;-82
2024/01/01 04:55:45;;;;;;;19.97;17.63;;;;;;;;;;5096021;28;20213;-82
2024/01/01 04:58:14;;;;;;;22.37;19.57;;;;;;;;;;5095799;28;20200;-81
2024/01/01 05:00:40;;;;;;;24.97;21.70;;;;;;;;;;5095501;28;20651;-82
2024/01/01 05:03:07;;;;;;;23.97;17.67;;;;;;;;;;5095357;28;20211;-84
2024/01/01 05:05:34;;;;;;;20.30;17.37;;;;;;;;;;5095332;28;20208;-82
2024/01/01 05:08:01;;;;;;;28.30;23.73;;;;;;;;;;5095815;28;20196;-82
2024/01/01 05:10:27;;;;;;;30.80;25.13;;;;;;;;;;5095190;28;20223;-82
2024/01/01 05:12:54;;;;;;;35.03;26.23;;;;;;;;;;5095579;28;20196;-82
2024/01/01 05:15:22;;;;;;;32.07;25.47;;;;;;;;;;5095565;28;20207;-82
2024/01/01 05:17:50;;;;;;;38.60;27.90;;;;;;;;;;5095104;28;20200;-82
2024/01/01 05:20:16;;;;;;;49.33;32.90;;;;;;;;;;5094805;28;20697;-82
2024/01/01 05:22:43;;;;;;;40.70;28.70;;;;;;;;;;5095629;28;20200;-82
2024/01/01 05:25:10;;;;;;;26.63;22.17;;;;;;;;;;5095305;28;20196;-82
2024/01/01 05:27:37;;;;;;;45.17;31.07;;;;;;;;;;5094992;28;20196;-82
2024/01/01 05:30:05;;;;;;;31.20;22.77;;;;;;;;;;5094987;28;20196;-83
2024/01/01 05:32:34;;;;;;;24.90;18.17;;;;;;;;;;5095186;28;20315;-82
2024/01/01 05:35:01;;;;;;;25.40;18.83;;;;;;;;;;5077206;28;20204;-82
2024/01/01 05:37:27;;;;;;;22.00;16.13;;;;;;;;;;5095673;28;20200;-82
2024/01/01 05:39:54;;;;;;;19.57;16.30;;;;;;;;;;5095170;28;20207;-82
2024/01/01 05:42:22;;;;;;;19.80;16.20;;;;;;;;;;5095054;28;20200;-82
2024/01/01 05:44:49;;;;;;;43.73;30.93;;;;;;;;;;5095209;28;20196;-78
2024/01/01 05:47:16;;;;;;;90.80;54.50;;;;;;;;;;5094987;28;20196;-78
2024/01/01 05:49:44;;;;;;;68.20;44.67;;;;;;;;;;5094955;28;20257;-81
2024/01/01 05:52:11;;;;;;;61.80;45.13;;;;;;;;;;5094780;28;20219;-81
2024/01/01 05:54:38;;;;;;;46.57;33.00;;;;;;;;;;5094700;28;20674;-81
2024/01/01 05:57:08;;;;;;;28.10;22.70;;;;;;;;;;5094540;28;20615;-81
2024/01/01 05:59:35;;;;;;;34.17;24.73;;;;;;;;;;5094368;28;20204;-81
2024/01/01 06:02:01;;;;;;;34.77;25.43;;;;;;;;;;5094205;28;20224;-81
2024/01/01 06:04:28;;;;;;;33.97;25.67;;;;;;;;;;5094180;28;20197;-81
2024/01/01 06:06:56;;;;;;;27.20;22.20;;;;;;;;;;5094865;28;20196;-81
2024/01/01 06:09:23;;;;;;;31.40;22.10;;;;;;;;;;5094756;28;20203;-81
2024/01/01 06:11:50;;;;;;;25.27;19.10;;;;;;;;;;5094323;28;20216;-81
2024/01/01 06:14:17;;;;;;;22.20;16.47;;;;;;;;;;5094071;28;20207;-81
2024/01/01 06:16:44;;;;;;;21.87;17.00;;;;;;;;;;5094218;28;20274;-81
2024/01/01 06:19:11;;;;;;;22.97;18.60;;;;;;;;;;5094165;28;20232;-81
2024/01/01 06:21:38;;;;;;;19.33;15.30;;;;;;;;;;5093977;28;20203;-82
2024/01/01 06:24:07;;;;;;;20.27;14.90;;;;;;;;;;5093865;28;20684;-81
2024/01/01 06:26:33;;;;;;;20.00;15.70;;;;;;;;;;5094048;28;20666;-82
2024/01/01 06:29:00;;;;;;;20.70;15.43;;;;;;;;;;5093874;28;20204;-82
2024/01/01 06:31:27;;;;;;;18.93;15.17;;;;;;;;;;5093816;28;20714;-82
2024/01/01 06:33:54;;;;;;;18.53;16.53;;;;;;;;;;5094453;28;20192;-82
2024/01/01 06:36:21;;;;;;;21.90;18.67;;;;;;;;;;5093875;28;20193;-82
2024/01/01 06:38:48;;;;;;;20.37;18.00;;;;;;;;;;5093901;28;20193;-81
2024/01/01 06:41:16;;;;;;;22.67;18.97;;;;;;;;;;5093543;28;20200;-82
2024/01/01 06:43:43;;;;;;;19.53;17.30;;;;;;;;;;5093874;28;20592;-82
2024/01/01 06:46:11;;;;;;;19.00;16.17;;;;;;;;;;5093987;28;20200;-82
2024/01/01 06:48:38;;;;;;;18.97;14.43;;;;;;;;;;5093873;28;20208;-82
2024/01/01 06:51:09;;;;;;;20.73;15.90;;;;;;;;;;5093220;28;20216;-82
2024/01/01 06:53:36;;;;;;;21.20;15.70;;;;;;;;;;5093924;28;20228;-82
2024/01/01 06:56:03;;;;;;;18.93;16.50;;;;;;;;;;5093724;28;20250;-82
2024/01/01 06:58:32;;;;;;;21.03;15.33;;;;;;;;;;5093106;28;20196;-82
2024/01/01 07:00:58;;;;;;;17.40;14.53;;;;;;;;;;5093200;28;20293;-83
2024/01/01 07:03:26;;;;;;;19.37;14.67;;;;;;;;;;5093596;28;20197;-84
2024/01/01 07:05:52;;;;;;;18.27;15.40;;;;;;;;;;5093779;28;20207;-84
2024/01/01 07:08:19;;;;;;;19.97;14.67;;;;;;;;;;5093352;28;20199;-84
2024/01/01 07:10:48;;;;;;;15.23;13.63;;;;;;;;;;5108366;28;20196;-83
2024/01/01 07:13:14;;;;;;;15.07;12.77;;;;;;;;;;5112489;28;20200;-83
2024/01/01 07:15:43;;;;;;;13.70;12.30;;;;;;;;;;5113320;28;20203;-84
2024/01/01 07:18:09;;;;;;;16.53;13.07;;;;;;;;;;5111799;28;20195;-84
2024/01/01 07:20:36;;;;;;;14.97;12.13;;;;;;;;;;5108640;28;20196;-84
2024/01/01 07:23:03;;;;;;;15.13;11.93;;;;;;;;;;5100838;28;20276;-84
2024/01/01 07:25:30;;;;;;;14.70;12.77;;;;;;;;;;5073649;28;20280;-84
2024/01/01 07:27:57;;;;;;;16.40;13.90;;;;;;;;;;5093215;28;20291;-84
2024/01/01 07:30:24;;;;;;;16.10;13.47;;;;;;;;;;5092828;28;20211;-83
2024/01/01 07:32:52;;;;;;;16.37;13.00;;;;;;;;;;5092550;28;20288;-84
2024/01/01 07:35:19;;;;;;;18.43;15.63;;;;;;;;;;5092559;28;20200;-86
2024/01/01 07:37:46;;;;;;;16.30;13.00;;;;;;;;;;5092892;28;20278;-84
2024/01/01 07:40:13;;;;;;;21.30;14.80;;;;;;;;;;5092861;28;20196;-84
2024/01/01 07:42:40;;;;;;;22.40;16.23;;;;;;;;;;5092661;28;20205;-87
2024/01/01 07:45:07;;;;;;;18.03;16.10;;;;;;;;;;5092197;28;20279;-82
2024/01/01 07:47:34;;;;;;;21.00;17.10;;;;;;;;;;5092373;28;20204;-86
2024/01/01 07:50:02;;;;;;;20.87;16.83;;;;;;;;;;5093112;28;20200;-84
2024/01/01 07:52:29;;;;;;;26.63;19.23;;;;;;;;;;5092957;28;20683;-86
2024/01/01 07:54:57;;;;;;;23.03;18.37;;;;;;;;;;5092976;28;20200;-86
2024/01/01 07:57:24;;;;;;;25.23;21.07;;;;;;;;;;5093375;28;20298;-88
2024/01/01 07:59:55;;;;;;;25.63;21.13;;;;;;;;;;5093109;28;20195;-88
2024/01/01 08:02:22;;;;;;;27.17;21.63;;;;;;;;;;5093087;28;20577;-89
2024/01/01 08:04:49;;;;;;;27.23;23.17;;;;;;;;;;5091746;28;20192;-88
2024/01/01 08:07:19;;;;;;;20.57;15.57;;;;;;;;;;5074128;28;20691;-88
2024/01/01 08:09:46;;;;;;;16.43;14.57;;;;;;;;;;5092382;28;20211;-88
2024/01/01 08:12:16;;;;;;;22.33;14.40;;;;;;;;;;5092418;28;20693;-88
2024/01/01 08:14:44;;;;;;;16.10;13.77;;;;;;;;;;5092720;28;20204;-89
2024/01/01 08:17:11;;;;;;;15.80;13.27;;;;;;;;;;5092622;28;20270;-88
2024/01/01 08:19:38;;;;;;;17.20;13.60;;;;;;;;;;5093142;28;20195;-88
2024/01/01 08:22:04;;;;;;;15.13;13.53;;;;;;;;;;5092492;28;20211;-88
2024/01/01 08:24:33;;;;;;;19.10;14.77;;;;;;;;;;5091986;28;20200;-88
2024/01/01 08:26:59;;;;;;;16.80;13.87;;;;;;;;;;5092533;28;20225;-85
2024/01/01 08:29:26;;;;;;;16.37;14.03;;;;;;;;;;5096713;28;20195;-85
2024/01/01 08:31:53;;;;;;;18.17;15.60;;;;;;;;;;5106219;28;20235;-86
2024/01/01 08:34:20;;;;;;;19.40;13.53;;;;;;;;;;5101353;28;20198;-85
2024/01/01 08:36:47;;;;;;;15.57;13.67;;;;;;;;;;5105123;28;20673;-85
2024/01/01 08:39:14;;;;;;;14.77;13.00;;;;;;;;;;5095192;28;20202;-85
2024/01/01 08:41:45;;;;;;;14.53;12.20;;;;;;;;;;5092316;28;20207;-85
2024/01/01 08:44:12;;;;;;;13.77;12.27;;;;;;;;;;5092346;28;20204;-86
2024/01/01 08:46:39;;;;;;;13.70;11.07;;;;;;;;;;5092224;28;20196;-85
2024/01/01 08:49:09;;;;;;;13.20;11.87;;;;;;;;;;5092001;28;20545;-82
2024/01/01 08:51:36;;;;;;;16.27;9.50;;;;;;;;;;5091906;28;20284;-82
2024/01/01 08:54:05;;;;;;;11.37;10.20;;;;;;;;;;5091520;28;20196;-85
2024/01/01 08:56:32;;;;;;;10.40;8.43;;;;;;;;;;5104676;28;20199;-85
2024/01/01 08:59:00;;;;;;;10.17;9.07;;;;;;;;;;5112262;28;20209;-84
2024/01/01 09:01:27;;;;;;;13.27;9.87;;;;;;;;;;5094652;28;20714;-84
2024/01/01 09:03:56;;;;;;;10.93;8.77;;;;;;;;;;5091452;28;20196;-84
2024/01/01 09:06:23;;;;;;;9.93;8.13;;;;;;;;;;5105778;28;20287;-84
2024/01/01 09:08:53;;;;;;;10.23;7.97;;;;;;;;;;5098961;28;20204;-85
2024/01/01 09:11:19;;;;;;;12.17;8.80;;;;;;;;;;5099536;28;20196;-85
2024/01/01 09:13:46;;;;;;;11.43;9.00;;;;;;;;;;5099760;28;20207;-84
2024/01/01 09:16:14;;;;;;;9.27;8.00;;;;;;;;;;5111058;28;20218;-84
2024/01/01 09:18:41;;;;;;;13.83;11.20;;;;;;;;;;5103696;28;20200;-85
2024/01/01 09:21:14;;;;;;;9.97;8.97;;;;;;;;;;5098162;28;20204;-84
2024/01/01 09:23:41;;;;;;;14.40;12.37;;;;;;;;;;5111257;28;20191;-85
2024/01/01 09:26:08;;;;;;;14.03;11.07;;;;;;;;;;5110509;28;20261;-84
2024/01/01 09:28:34;;;;;;;14.33;12.33;;;;;;;;;;5110481;28;20203;-84
2024/01/01 09:31:01;;;;;;;11.07;10.00;;;;;;;;;;5110699;28;20242;-84
2024/01/01 09:33:31;;;;;;;15.93;11.97;;;;;;;;;;5105262;28;20220;-84
2024/01/01 09:35:57;;;;;;;13.70;9.93;;;;;;;;;;5101164;28;20616;-84
2024/01/01 09:38:24;;;;;;;12.23;9.40;;;;;;;;;;5104650;28;20616;-84
2024/01/01 09:40:55;;;;;;;10.13;9.10;;;;;;;;;;5112867;28;20192;-84
2024/01/01 09:43:22;;;;;;;10.07;9.10;;;;;;;;;;5109691;28;20223;-84
2024/01/01 09:45:49;;;;;;;9.93;8.83;;;;;;;;;;5114703;28;20195;-84
2024/01/01 09:48:15;;;;;;;10.13;9.07;;;;;;;;;;5104225;28;20551;-84
2024/01/01 09:50:44;;;;;;;10.67;9.23;;;;;;;;;;5115013;28;20568;-85
2024/01/01 09:53:12;;;;;;;9.50;8.50;;;;;;;;;;5112824;28;20272;-84
2024/01/01 09:55:39;;;;;;;9.20;8.33;;;;;;;;;;5114201;28;20588;-84
2024/01/01 09:58:06;;;;;;;12.00;9.37;;;;;;;;;;5113868;28;20202;-83
2024/01/01 10:00:33;;;;;;;10.67;9.57;;;;;;;;;;5080316;28;20188;-84
2024/01/01 10:03:10;;;;;;;10.53;9.13;;;;;;;;;;5107128;28;20203;-84
2024/01/01 10:05:37;;;;;;;9.10;8.27;;;;;;;;;;5093000;28;20188;-84
2024/01/01 10:08:14;;;;;;;10.83;8.43;;;;;;;;;;5113215;28;20201;-85
2024/01/01 10:10:42;;;;;;;10.37;8.80;;;;;;;;;;5113595;28;20688;-84
2024/01/01 10:13:09;;;;;;;8.70;7.23;;;;;;;;;;5114433;28;20249;-84
2024/01/01 10:15:38;;;;;;;7.50;6.80;;;;;;;;;;5115043;28;20199;-85
2024/01/01 10:18:10;;;;;;;11.77;7.17;;;;;;;;;;5114639;28;20264;-84
2024/01/01 10:20:37;;;;;;;8.47;7.47;;;;;;;;;;5114851;28;20214;-84
2024/01/01 10:23:27;;;;;;;10.93;8.80;;;;;;;;;;5113339;28;20231;-84
2024/01/01 10:26:06;;;;;;;7.70;6.60;;;;;;;;;;5102734;28;20195;-84
2024/01/01 10:28:33;;;;;;;7.27;6.57;;;;;;;;;;5111739;28;20213;-84
2024/01/01 10:31:00;;;;;;;6.03;5.20;;;;;;;;;;5113767;28;20224;-84
2024/01/01 10:33:29;;;;;;;8.70;6.00;;;;;;;;;;5113126;28;20227;-84
2024/01/01 10:35:57;;;;;;;8.47;6.87;;;;;;;;;;5111036;28;20202;-84
2024/01/01 10:38:26;;;;;;;9.63;8.53;;;;;;;;;;5113463;28;20198;-84
2024/01/01 10:40:55;;;;;;;6.93;5.97;;;;;;;;;;5097147;28;20198;-84
2024/01/01 10:43:25;;;;;;;6.80;6.20;;;;;;;;;;5102668;28;20659;-84
2024/01/01 10:45:53;;;;;;;6.57;5.97;;;;;;;;;;5095560;28;20204;-85
2024/01/01 10:48:22;;;;;;;8.80;6.47;;;;;;;;;;5106222;28;20231;-84
2024/01/01 10:51:16;;;;;;;5.73;5.23;;;;;;;;;;5113921;28;20193;-84
2024/01/01 10:54:12;;;;;;;9.37;5.97;;;;;;;;;;5112378;28;20244;-84
2024/01/01 10:56:47;;;;;;;6.30;5.23;;;;;;;;;;5108192;28;20201;-84
2024/01/01 10:59:20;;;;;;;6.03;5.43;;;;;;;;;;5100300;28;20215;-84
2024/01/01 11:01:50;;;;;;;6.33;5.73;;;;;;;;;;5112915;28;20196;-83
2024/01/01 11:04:20;;;;;;;6.93;5.40;;;;;;;;;;5113217;28;20203;-84
2024/01/01 11:06:47;;;;;;;6.63;5.70;;;;;;;;;;5113110;28;20207;-84
2024/01/01 11:09:34;;;;;;;13.93;11.30;;;;;;;;;;5112811;28;20206;-84
2024/01/01 11:12:02;;;;;;;19.87;17.80;;;;;;;;;;5113063;28;20205;-83
2024/01/01 11:14:30;;;;;;;17.23;15.27;;;;;;;;;;5113780;28;20200;-83
2024/01/01 11:17:02;;;;;;;16.17;13.60;;;;;;;;;;5113225;28;20206;-83
2024/01/01 11:19:42;;;;;;;21.10;17.63;;;;;;;;;;5113782;28;20194;-83
2024/01/01 11:22:31;;;;;;;19.47;17.17;;;;;;;;;;5112897;28;20197;-82
2024/01/01 11:25:03;;;;;;;23.50;19.67;;;;;;;;;;5092492;28;20208;-83
2024/01/01 11:27:31;;;;;;;24.53;19.57;;;;;;;;;;5092656;28;20198;-83
2024/01/01 11:30:02;;;;;;;26.87;22.30;;;;;;;;;;5098727;28;20283;-83
2024/01/01 11:32:29;;;;;;;21.37;19.10;;;;;;;;;;5105885;28;20312;-83
2024/01/01 11:35:08;;;;;;;28.03;23.30;;;;;;;;;;5098087;28;20245;-83
2024/01/01 11:37:35;;;;;;;29.37;25.03;;;;;;;;;;5103410;28;20200;-83
2024/01/01 11:40:04;;;;;;;23.37;20.83;;;;;;;;;;5112307;28;20530;-83
2024/01/01 11:42:31;;;;;;;24.70;21.10;;;;;;;;;;5112027;28;20210;-83
2024/01/01 11:45:09;;;;;;;33.03;25.27;;;;;;;;;;5111476;28;20701;-83
2024/01/01 11:47:36;;;;;;;30.97;26.83;;;;;;;;;;5112280;28;20195;-83
2024/01/01 11:50:06;;;;;;;34.80;27.87;;;;;;;;;;5112256;28;20666;-83
2024/01/01 11:52:35;;;;;;;30.03;24.93;;;;;;;;;;5112472;28;20222;-83
2024/01/01 11:55:06;;;;;;;26.30;22.10;;;;;;;;;;5112660;28;20207;-83
2024/01/01 11:57:34;;;;;;;23.97;20.17;;;;;;;;;;5112682;28;20199;-83
2024/01/01 12:00:01;;;;;;;26.03;21.07;;;;;;;;;;5110578;28;20256;-83
2024/01/01 12:02:28;;;;;;;26.87;23.83;;;;;;;;;;5111850;28;20763;-84
2024/01/01 12:04:56;;;;;;;25.73;21.60;;;;;;;;;;5111770;28;20204;-83
2024/01/01 12:07:30;;;;;;;22.77;18.77;;;;;;;;;;5111486;28;20702;-83
2024/01/01 12:10:09;;;;;;;23.70;18.80;;;;;;;;;;5111462;28;20195;-83
2024/01/01 12:12:36;;;;;;;25.73;19.23;;;;;;;;;;5111590;28;20218;-83
2024/01/01 12:15:10;;;;;;;26.07;18.33;;;;;;;;;;5111392;28;20199;-83
2024/01/01 12:17:42;;;;;;;19.03;16.50;;;;;;;;;;5111665;28;20281;-83
2024/01/01 12:20:10;;;;;;;30.27;24.23;;;;;;;;;;5111342;28;20249;-83
2024/01/01 12:22:37;;;;;;;24.80;22.00;;;;;;;;;;5112885;28;20267;-83
2024/01/01 12:25:07;;;;;;;20.30;18.00;;;;;;;;;;5110579;28;20673;-83
2024/01/01 12:27:34;;;;;;;22.13;17.30;;;;;;;;;;5112611;28;20596;-83
2024/01/01 12:30:02;;;;;;;22.77;18.53;;;;;;;;;;5110797;28;20573;-82
2024/01/01 12:32:31;;;;;;;23.67;17.83;;;;;;;;;;5111794;28;20227;-83
2024/01/01 12:34:57;;;;;;;23.43;18.23;;;;;;;;;;5111450;28;20198;-82
2024/01/01 12:37:24;;;;;;;26.10;19.00;;;;;;;;;;5111628;28;20566;-82
2024/01/01 12:39:51;;;;;;;22.20;19.10;;;;;;;;;;5112277;28;20199;-82
2024/01/01 12:42:19;;;;;;;29.50;21.03;;;;;;;;;;5111969;28;20195;-83
2024/01/01 12:44:46;;;;;;;29.30;24.10;;;;;;;;;;5110102;28;21108;-83
2024/01/01 12:47:14;;;;;;;25.30;20.50;;;;;;;;;;5112476;28;20198;-83
2024/01/01 12:49:41;;;;;;;24.20;20.47;;;;;;;;;;5110767;28;20203;-83
2024/01/01 12:52:08;;;;;;;27.83;22.27;;;;;;;;;;5110295;28;20657;-82
2024/01/01 12:54:35;;;;;;;27.73;21.07;;;;;;;;;;5111267;28;20677;-83
2024/01/01 12:57:02;;;;;;;20.57;18.33;;;;;;;;;;5094241;28;20232;-83
2024/01/01 12:59:30;;;;;;;23.80;21.30;;;;;;;;;;5102842;28;20203;-83
2024/01/01 13:01:57;;;;;;;21.90;19.50;;;;;;;;;;5109433;28;20203;-83
2024/01/01 13:04:25;;;;;;;25.97;19.80;;;;;;;;;;5094614;28;20203;-83
2024/01/01 13:06:54;;;;;;;27.97;18.87;;;;;;;;;;5100634;28;20609;-82
2024/01/01 13:09:22;;;;;;;34.10;28.77;;;;;;;;;;5111393;28;20748;-81
2024/01/01 13:11:52;;;;;;;35.30;26.40;;;;;;;;;;5114374;28;20222;-81
2024/01/01 13:14:19;;;;;;;21.17;17.70;;;;;;;;;;5114915;28;20223;-80
2024/01/01 13:16:50;;;;;;;28.63;24.17;;;;;;;;;;5114582;28;20191;-80
2024/01/01 13:19:17;;;;;;;21.20;15.97;;;;;;;;;;5085895;28;20187;-80
2024/01/01 13:21:44;;;;;;;28.27;21.23;;;;;;;;;;5114885;28;20253;-80
2024/01/01 13:24:14;;;;;;;25.60;20.73;;;;;;;;;;5115027;28;20202;-81
2024/01/01 13:26:41;;;;;;;24.30;20.90;;;;;;;;;;5114773;28;20198;-80
2024/01/01 13:29:08;;;;;;;21.97;18.90;;;;;;;;;;5114721;28;20199;-81
2024/01/01 13:31:35;;;;;;;36.87;30.30;;;;;;;;;;5114877;28;20666;-80
2024/01/01 13:34:03;;;;;;;32.90;27.23;;;;;;;;;;5114079;28;20227;-81
2024/01/01 13:36:31;;;;;;;34.00;28.50;;;;;;;;;;5114207;28;20235;-81
2024/01/01 13:38:58;;;;;;;38.03;27.90;;;;;;;;;;5114278;28;20199;-81
2024/01/01 13:41:24;;;;;;;32.67;24.83;;;;;;;;;;5115705;28;20207;-81
2024/01/01 13:43:52;;;;;;;26.50;21.27;;;;;;;;;;5114046;28;20206;-80
2024/01/01 13:46:19;;;;;;;23.03;19.63;;;;;;;;;;5114827;28;20207;-80
2024/01/01 13:48:46;;;;;;;40.00;29.37;;;;;;;;;;5113803;28;20612;-80
2024/01/01 13:51:18;;;;;;;60.83;35.63;;;;;;;;;;5114671;28;20203;-81
2024/01/01 13:53:45;;;;;;;25.93;20.47;;;;;;;;;;5114828;28;20223;-81
2024/01/01 13:56:17;;;;;;;30.93;24.10;;;;;;;;;;5113425;28;20203;-81
2024/01/01 13:58:44;;;;;;;23.27;20.87;;;;;;;;;;5115056;28;20282;-81
2024/01/01 14:01:11;;;;;;;36.50;30.63;;;;;;;;;;5114186;28;20596;-81
2024/01/01 14:03:40;;;;;;;32.60;26.97;;;;;;;;;;5113739;28;20195;-81
2024/01/01 14:06:07;;;;;;;25.53;21.43;;;;;;;;;;5114417;28;20700;-81
2024/01/01 14:08:35;;;;;;;31.07;24.40;;;;;;;;;;5113896;28;20202;-81
2024/01/01 14:11:04;;;;;;;26.23;21.73;;;;;;;;;;5114337;28;20200;-82
2024/01/01 14:13:31;;;;;;;25.40;22.53;;;;;;;;;;5114382;28;20772;-81
2024/01/01 14:15:58;;;;;;;36.17;28.93;;;;;;;;;;5113051;28;20191;-81
2024/01/01 14:18:25;;;;;;;33.33;29.60;;;;;;;;;;5113480;28;21137;-81
2024/01/01 14:20:52;;;;;;;28.47;25.40;;;;;;;;;;5113680;28;20670;-81
2024/01/01 14:23:20;;;;;;;28.00;22.93;;;;;;;;;;5112186;28;20636;-82